createdAt,value
2018-11-23T00:00:23.163Z,41.30
2018-11-23T00:02:49.188Z,41.20
2018-11-23T00:07:46.971Z,41.20
2018-11-23T00:10:12.989Z,41.30
2018-11-23T00:12:39.019Z,41.30
2018-11-23T00:15:05.029Z,41.30
2018-11-23T00:17:31.057Z,41.20
2018-11-23T00:19:57.084Z,41.30
2018-11-23T00:22:23.100Z,41.20
2018-11-23T00:24:49.124Z,41.20
2018-11-23T00:27:15.159Z,41.20
2018-11-23T00:29:41.179Z,41.20
2018-11-23T00:32:07.199Z,41.20
2018-11-23T00:34:33.224Z,41.20
2018-11-23T00:36:59.253Z,41.30
2018-11-23T00:39:25.276Z,41.30
2018-11-23T00:41:51.292Z,41.20
2018-11-23T00:44:17.317Z,40.70
2018-11-23T00:46:43.340Z,41.20
2018-11-23T00:49:09.357Z,41.10
2018-11-23T00:51:35.383Z,41.10
2018-11-23T00:54:01.414Z,41.10
2018-11-23T00:56:27.433Z,41.10
2018-11-23T00:58:53.448Z,41.10
2018-11-23T01:06:23.416Z,41.20
2018-11-23T01:08:49.428Z,41.20
2018-11-23T01:11:15.452Z,41.30
2018-11-23T01:13:41.477Z,41.30
2018-11-23T01:16:07.494Z,41.20
2018-11-23T01:18:33.343Z,41.20
2018-11-23T01:26:04.698Z,41.10
2018-11-23T01:28:30.715Z,41.10
2018-11-23T01:30:56.740Z,41.70
2018-11-23T01:33:22.771Z,40.90
2018-11-23T01:35:48.797Z,41.00
2018-11-23T01:38:14.823Z,40.90
2018-11-23T01:43:16.900Z,41.40
2018-11-23T01:45:42.911Z,41.00
2018-11-23T01:48:08.944Z,41.60
2018-11-23T01:50:34.971Z,41.10
2018-11-23T01:53:00.992Z,41.00
2018-11-23T01:55:27.011Z,41.10
2018-11-23T01:57:52.822Z,41.00
2018-11-23T02:00:18.855Z,40.90
2018-11-23T02:02:44.870Z,40.90
2018-11-23T02:05:10.896Z,40.90
2018-11-23T02:07:37.493Z,40.90
2018-11-23T02:10:03.307Z,40.90
2018-11-23T02:12:34.910Z,40.90
2018-11-23T02:15:00.929Z,41.00
2018-11-23T02:17:26.959Z,40.80
2018-11-23T02:19:52.975Z,40.80
2018-11-23T02:22:19.002Z,40.80
2018-11-23T02:24:45.034Z,40.90
2018-11-23T02:27:11.085Z,40.80
2018-11-23T02:29:37.638Z,40.90
2018-11-23T02:32:04.876Z,40.80
2018-11-23T02:34:35.051Z,40.80
2018-11-23T02:37:01.075Z,40.80
2018-11-23T02:39:27.104Z,40.80
2018-11-23T02:41:53.128Z,40.80
2018-11-23T02:44:19.144Z,40.70
2018-11-23T02:51:48.890Z,40.70
2018-11-23T02:54:14.910Z,40.60
2018-11-23T02:56:40.743Z,40.70
2018-11-23T02:59:06.759Z,40.70
2018-11-23T03:01:32.774Z,40.70
2018-11-23T03:03:58.790Z,40.70
2018-11-23T03:06:28.928Z,40.70
2018-11-23T03:08:54.951Z,40.60
2018-11-23T03:11:20.971Z,40.70
2018-11-23T03:13:46.995Z,40.60
2018-11-23T03:16:13.020Z,40.70
2018-11-23T03:18:39.034Z,40.70
2018-11-23T03:21:05.066Z,40.70
2018-11-23T03:26:02.571Z,40.70
2018-11-23T03:28:29.275Z,40.70
2018-11-23T03:30:55.304Z,40.70
2018-11-23T03:33:21.319Z,40.70
2018-11-23T03:35:47.342Z,40.80
2018-11-23T03:40:44.723Z,40.60
2018-11-23T03:43:10.744Z,40.70
2018-11-23T03:45:41.064Z,40.60
2018-11-23T03:48:06.995Z,40.70
2018-11-23T03:50:33.072Z,40.60
2018-11-23T03:52:59.035Z,40.80
2018-11-23T03:55:25.060Z,40.70
2018-11-23T03:57:51.079Z,40.60
2018-11-23T04:00:17.677Z,40.60
2018-11-23T04:02:43.132Z,40.60
2018-11-23T04:05:09.171Z,40.60
2018-11-23T04:07:41.108Z,40.60
2018-11-23T04:10:07.135Z,40.60
2018-11-23T04:12:33.165Z,40.70
2018-11-23T04:14:59.176Z,40.70
2018-11-23T04:17:25.211Z,40.60
2018-11-23T04:24:54.492Z,40.60
2018-11-23T04:32:23.392Z,40.80
2018-11-23T04:34:50.100Z,40.80
2018-11-23T04:37:16.146Z,40.80
2018-11-23T04:44:46.090Z,40.70
2018-11-23T04:47:17.023Z,40.60
2018-11-23T04:49:43.038Z,40.60
2018-11-23T04:52:09.056Z,40.60
2018-11-23T04:54:35.082Z,40.70
2018-11-23T04:57:01.115Z,40.60
2018-11-23T05:02:05.052Z,40.60
2018-11-23T05:07:05.069Z,40.60
2018-11-23T05:09:31.081Z,40.60
2018-11-23T05:11:57.107Z,40.60
2018-11-23T05:14:23.130Z,40.60
2018-11-23T05:16:49.163Z,40.60
2018-11-23T05:19:15.175Z,40.50
2018-11-23T05:21:41.216Z,40.50
2018-11-23T05:24:11.126Z,40.30
2018-11-23T05:26:37.145Z,40.30
2018-11-23T05:29:03.174Z,40.50
2018-11-23T05:36:33.927Z,40.50
2018-11-23T05:38:59.965Z,40.50
2018-11-23T05:41:25.985Z,41.10
2018-11-23T05:43:51.997Z,40.50
2018-11-23T05:46:18.019Z,40.40
2018-11-23T05:48:44.061Z,40.40
2018-11-23T05:51:10.082Z,40.40
2018-11-23T05:53:36.091Z,40.10
2018-11-23T05:56:02.133Z,40.40
2018-11-23T05:58:29.164Z,40.60
2018-11-23T06:00:55.194Z,40.60
2018-11-23T06:03:21.208Z,40.50
2018-11-23T06:05:47.240Z,40.50
2018-11-23T06:08:13.256Z,40.60
2018-11-23T06:10:41.132Z,40.50
2018-11-23T06:13:07.163Z,40.40
2018-11-23T06:15:35.236Z,40.50
2018-11-23T06:18:01.798Z,40.60
2018-11-23T06:20:27.681Z,40.60
2018-11-23T06:22:53.703Z,40.60
2018-11-23T06:25:19.725Z,40.50
2018-11-23T06:27:45.749Z,40.50
2018-11-23T06:30:11.772Z,40.50
2018-11-23T06:32:37.787Z,40.50
2018-11-23T06:35:03.811Z,40.50
2018-11-23T06:37:29.843Z,40.50
2018-11-23T06:39:55.861Z,40.50
2018-11-23T06:42:21.879Z,40.60
2018-11-23T06:44:47.914Z,40.50
2018-11-23T06:47:13.929Z,40.40
2018-11-23T06:49:39.950Z,40.40
2018-11-23T06:52:05.982Z,40.40
2018-11-23T06:54:31.808Z,40.40
2018-11-23T06:56:57.818Z,40.40
2018-11-23T06:59:23.851Z,41.10
2018-11-23T07:01:49.868Z,40.50
2018-11-23T07:04:15.894Z,40.40
2018-11-23T07:06:41.918Z,40.40
2018-11-23T07:09:07.937Z,40.40
2018-11-23T07:11:33.952Z,40.40
2018-11-23T07:14:03.855Z,40.50
2018-11-23T07:16:26.013Z,40.40
2018-11-23T07:18:52.035Z,40.20
2018-11-23T07:21:21.539Z,40.30
2018-11-23T07:23:44.079Z,40.10
2018-11-23T07:26:10.096Z,40.20
2018-11-23T07:28:36.114Z,40.20
2018-11-23T07:36:05.059Z,40.30
2018-11-23T07:38:31.077Z,40.30
2018-11-23T07:40:57.095Z,40.40
2018-11-23T07:43:23.112Z,40.50
2018-11-23T07:45:49.144Z,40.40
2018-11-23T07:48:14.967Z,40.40
2018-11-23T07:50:47.135Z,40.50
2018-11-23T07:55:45.115Z,40.30
2018-11-23T07:58:11.135Z,40.40
2018-11-23T08:03:08.925Z,40.40
2018-11-23T08:05:34.950Z,40.30
2018-11-23T08:08:00.963Z,40.40
2018-11-23T08:10:26.989Z,40.50
2018-11-23T08:12:53.016Z,40.50
2018-11-23T08:15:19.033Z,40.40
2018-11-23T08:17:45.051Z,40.50
2018-11-23T08:20:11.085Z,40.50
2018-11-23T08:22:37.108Z,40.40
2018-11-23T08:25:03.131Z,40.40
2018-11-23T08:27:29.154Z,40.50
2018-11-23T08:29:54.977Z,40.40
2018-11-23T08:32:21.004Z,40.50
2018-11-23T08:37:20.006Z,40.50
2018-11-23T08:39:46.019Z,40.40
2018-11-23T08:42:12.052Z,40.50
2018-11-23T08:44:38.069Z,40.50
2018-11-23T08:47:04.091Z,40.50
2018-11-23T08:49:30.110Z,40.50
2018-11-23T08:51:56.152Z,40.60
2018-11-23T08:54:22.159Z,40.60
2018-11-23T08:56:48.185Z,40.60
2018-11-23T08:59:14.214Z,40.60
2018-11-23T09:01:40.228Z,40.60
2018-11-23T09:04:06.260Z,40.90
2018-11-23T09:06:32.288Z,40.60
2018-11-23T09:08:58.315Z,40.70
2018-11-23T09:11:24.327Z,40.60
2018-11-23T09:13:50.360Z,40.70
2018-11-23T09:16:16.377Z,40.80
2018-11-23T09:18:42.406Z,40.70
2018-11-23T09:21:11.288Z,40.80
2018-11-23T09:23:41.204Z,41.30
2018-11-23T09:26:07.228Z,40.70
2018-11-23T09:28:33.255Z,40.70
2018-11-23T09:30:59.276Z,40.80
2018-11-23T09:33:25.296Z,40.80
2018-11-23T09:35:51.324Z,40.90
2018-11-23T09:38:17.347Z,40.80
2018-11-23T09:40:43.355Z,40.90
2018-11-23T09:43:09.375Z,41.20
2018-11-23T09:45:35.415Z,40.90
2018-11-23T09:48:01.443Z,41.50
2018-11-23T09:50:27.460Z,40.80
2018-11-23T09:52:53.481Z,40.90
2018-11-23T09:55:19.512Z,40.90
2018-11-23T09:57:45.536Z,40.90
2018-11-23T10:00:11.565Z,41.00
2018-11-23T10:02:38.131Z,41.10
2018-11-23T10:05:03.949Z,41.00
2018-11-23T10:07:29.827Z,41.00
2018-11-23T10:09:55.843Z,41.10
2018-11-23T10:12:21.875Z,41.10
2018-11-23T10:17:23.175Z,41.20
2018-11-23T10:19:49.064Z,41.20
2018-11-23T10:22:15.080Z,41.30
2018-11-23T10:24:41.104Z,41.30
2018-11-23T10:27:11.230Z,41.20
2018-11-23T10:29:37.241Z,41.40
2018-11-23T10:32:03.312Z,41.80
2018-11-23T10:34:29.133Z,41.30
2018-11-23T10:36:55.116Z,41.30
2018-11-23T10:39:21.128Z,41.40
2018-11-23T10:41:47.151Z,41.30
2018-11-23T10:44:13.187Z,41.30
2018-11-23T10:49:11.188Z,41.40
2018-11-23T10:51:41.295Z,41.60
2018-11-23T10:59:11.025Z,41.60
2018-11-23T11:01:37.057Z,41.50
2018-11-23T11:04:03.069Z,41.60
2018-11-23T11:06:29.091Z,41.60
2018-11-23T11:08:55.116Z,41.60
2018-11-23T11:13:52.903Z,41.60
2018-11-23T11:16:18.928Z,41.60
2018-11-23T11:18:44.954Z,41.70
2018-11-23T11:21:10.979Z,41.70
2018-11-23T11:23:36.995Z,41.70
2018-11-23T11:26:03.028Z,41.70
2018-11-23T11:31:01.227Z,41.70
2018-11-23T11:33:27.804Z,41.80
2018-11-23T11:35:53.649Z,41.70
2018-11-23T11:40:51.855Z,41.70
2018-11-23T11:43:17.878Z,41.70
2018-11-23T11:45:43.901Z,41.80
2018-11-23T11:48:09.936Z,41.80
2018-11-23T11:50:35.948Z,41.90
2018-11-23T11:53:01.980Z,41.40
2018-11-23T11:55:29.231Z,41.90
2018-11-23T11:57:55.254Z,41.90
2018-11-23T12:00:21.279Z,42.00
2018-11-23T12:02:47.301Z,41.90
2018-11-23T12:10:17.042Z,42.00
2018-11-23T12:12:43.060Z,41.90
2018-11-23T12:15:09.087Z,42.10
2018-11-23T12:17:35.115Z,42.10
2018-11-23T12:20:01.138Z,42.10
2018-11-23T12:22:27.153Z,42.20
2018-11-23T12:24:53.180Z,42.30
2018-11-23T12:27:19.204Z,42.30
2018-11-23T12:29:45.231Z,42.40
2018-11-23T12:32:11.073Z,42.40
2018-11-23T12:37:09.648Z,42.40
2018-11-23T12:42:07.034Z,42.60
2018-11-23T12:44:35.292Z,42.60
2018-11-23T12:47:01.320Z,42.60
2018-11-23T12:57:03.228Z,42.70
2018-11-23T12:59:29.262Z,42.80
2018-11-23T13:01:55.908Z,42.50
2018-11-23T13:11:57.394Z,43.00
2018-11-23T13:14:23.410Z,43.00
2018-11-23T13:16:49.439Z,42.70
2018-11-23T13:19:15.459Z,43.10
2018-11-23T13:24:13.241Z,43.00
2018-11-23T13:26:41.314Z,43.10
2018-11-23T13:31:39.092Z,43.10
2018-11-23T13:34:05.114Z,43.00
2018-11-23T13:36:31.140Z,43.10
2018-11-23T13:41:29.336Z,43.20
2018-11-23T13:46:28.027Z,43.30
2018-11-23T13:48:54.056Z,43.30
2018-11-23T13:51:20.068Z,43.30
2018-11-23T13:53:46.103Z,43.30
2018-11-23T13:56:12.128Z,43.30
2018-11-23T13:58:38.150Z,43.40
2018-11-23T14:01:04.075Z,43.30
2018-11-23T14:11:04.889Z,43.40
2018-11-23T14:18:34.901Z,43.50
2018-11-23T14:21:00.928Z,43.60
2018-11-23T14:23:26.948Z,43.50
2018-11-23T14:25:52.967Z,43.60
2018-11-23T14:30:50.343Z,43.70
2018-11-23T14:33:16.378Z,43.60
2018-11-23T14:35:42.392Z,43.70
2018-11-23T14:38:08.420Z,43.60
2018-11-23T14:40:34.241Z,43.70
2018-11-23T14:43:00.262Z,43.60
2018-11-23T14:45:26.283Z,43.70
2018-11-23T14:47:52.307Z,43.80
2018-11-23T14:50:18.330Z,44.30
2018-11-23T14:52:44.345Z,44.10
2018-11-23T14:55:10.377Z,43.70
2018-11-23T14:57:36.404Z,43.80
2018-11-23T15:00:05.500Z,44.40
2018-11-23T15:02:31.511Z,43.80
2018-11-23T15:04:57.541Z,43.90
2018-11-23T15:07:23.563Z,43.80
2018-11-23T15:09:49.580Z,43.70
2018-11-23T15:12:15.616Z,43.80
2018-11-23T15:14:41.636Z,43.80
2018-11-23T15:17:07.660Z,43.80
2018-11-23T15:19:33.690Z,43.70
2018-11-23T15:21:59.699Z,43.80
2018-11-23T15:24:25.720Z,43.90
2018-11-23T15:26:51.747Z,43.90
2018-11-23T15:31:48.961Z,43.90
2018-11-23T15:34:14.944Z,43.90
2018-11-23T15:36:40.968Z,44.50
2018-11-23T15:39:06.991Z,43.90
2018-11-23T15:41:33.006Z,44.30
2018-11-23T15:43:59.030Z,44.50
2018-11-23T15:46:25.056Z,43.90
2018-11-23T15:48:51.080Z,43.90
2018-11-23T15:51:17.105Z,43.90
2018-11-23T15:53:43.128Z,43.90
2018-11-23T15:56:09.143Z,44.50
2018-11-23T15:58:35.167Z,44.10
2018-11-23T16:01:01.194Z,44.00
2018-11-23T16:03:27.217Z,44.00
2018-11-23T16:05:53.250Z,44.50
2018-11-23T16:13:22.975Z,44.20
2018-11-23T16:15:49.007Z,44.10
2018-11-23T16:18:14.927Z,44.10
2018-11-23T16:20:40.952Z,44.10
2018-11-23T16:23:06.966Z,44.20
2018-11-23T16:25:33.034Z,44.10
2018-11-23T16:33:03.363Z,44.20
2018-11-23T16:35:29.381Z,44.20
2018-11-23T16:37:55.409Z,44.70
2018-11-23T16:40:21.424Z,44.20
2018-11-23T16:42:47.443Z,44.20
2018-11-23T16:45:13.482Z,44.20
2018-11-23T16:50:11.232Z,44.30
2018-11-23T16:52:41.579Z,44.30
2018-11-23T16:55:07.610Z,44.30
2018-11-23T16:57:33.623Z,44.40
2018-11-23T16:59:59.656Z,44.30
2018-11-23T17:02:25.475Z,44.90
2018-11-23T17:04:51.488Z,44.30
2018-11-23T17:07:17.517Z,44.30
2018-11-23T17:09:44.183Z,44.30
2018-11-23T17:12:09.552Z,44.30
2018-11-23T17:14:35.575Z,44.30
2018-11-23T17:17:01.604Z,44.30
2018-11-23T17:19:27.622Z,44.30
2018-11-23T17:21:59.599Z,44.30
2018-11-23T17:24:25.444Z,44.30
2018-11-23T17:26:51.443Z,44.40
2018-11-23T17:29:23.608Z,44.80
2018-11-23T17:34:22.407Z,44.30
2018-11-23T17:36:48.423Z,44.50
2018-11-23T17:39:14.451Z,44.50
2018-11-23T17:41:41.447Z,44.40
2018-11-23T17:46:38.822Z,44.50
2018-11-23T17:51:36.653Z,44.50
2018-11-23T17:54:02.679Z,44.50
2018-11-23T17:56:28.702Z,44.50
2018-11-23T18:01:26.893Z,44.40
2018-11-23T18:03:52.907Z,44.40
2018-11-23T18:06:18.933Z,44.80
2018-11-23T18:08:44.974Z,44.50
2018-11-23T18:13:43.355Z,44.50
2018-11-23T18:16:09.378Z,44.50
2018-11-23T18:18:35.401Z,44.50
2018-11-23T18:21:01.420Z,44.40
2018-11-23T18:23:27.454Z,44.50
2018-11-23T18:25:53.485Z,44.40
2018-11-23T18:30:51.656Z,44.30
2018-11-23T18:33:17.679Z,44.40
2018-11-23T18:35:43.711Z,44.50
2018-11-23T18:38:09.738Z,44.40
2018-11-23T18:40:37.478Z,44.50
2018-11-23T18:43:01.778Z,44.40
2018-11-23T18:45:27.804Z,44.50
2018-11-23T18:47:53.820Z,44.40
2018-11-23T18:50:19.849Z,44.60
2018-11-23T18:52:45.876Z,44.60
2018-11-23T18:55:17.851Z,44.50
2018-11-23T18:57:37.907Z,44.50
2018-11-23T19:00:03.944Z,44.50
2018-11-23T19:02:29.967Z,44.50
2018-11-23T19:04:55.991Z,44.60
2018-11-23T19:07:22.056Z,44.60
2018-11-23T19:09:47.884Z,44.60
2018-11-23T19:12:13.856Z,44.60
2018-11-23T19:14:39.875Z,44.50
2018-11-23T19:17:05.700Z,44.60
2018-11-23T19:19:31.716Z,44.60
2018-11-23T19:21:57.733Z,44.20
2018-11-23T19:24:23.763Z,44.60
2018-11-23T19:26:49.794Z,44.60
2018-11-23T19:29:15.813Z,44.60
2018-11-23T19:31:41.836Z,44.60
2018-11-23T19:34:08.008Z,44.60
2018-11-23T19:36:33.833Z,44.60
2018-11-23T19:39:05.639Z,44.50
2018-11-23T19:41:31.655Z,44.60
2018-11-23T19:43:57.680Z,44.70
2018-11-23T19:46:23.712Z,44.70
2018-11-23T19:48:49.733Z,44.70
2018-11-23T19:51:17.602Z,44.60
2018-11-23T19:53:43.623Z,44.60
2018-11-23T19:56:09.644Z,44.60
2018-11-23T19:58:35.678Z,44.60
2018-11-23T20:01:02.249Z,44.50
2018-11-23T20:03:29.555Z,44.40
2018-11-23T20:05:55.579Z,44.50
2018-11-23T20:08:21.603Z,44.60
2018-11-23T20:10:47.623Z,44.50
2018-11-23T20:13:13.648Z,44.60
2018-11-23T20:15:39.682Z,44.60
2018-11-23T20:18:05.524Z,44.60
2018-11-23T20:20:31.515Z,45.30
2018-11-23T20:22:57.548Z,44.70
2018-11-23T20:25:23.548Z,44.70
2018-11-23T20:30:20.912Z,44.60
2018-11-23T20:35:23.637Z,44.70
2018-11-23T20:37:53.752Z,44.60
2018-11-23T20:40:19.767Z,44.60
2018-11-23T20:42:45.795Z,44.70
2018-11-23T20:45:11.819Z,44.70
2018-11-23T20:47:37.847Z,44.60
2018-11-23T20:50:03.865Z,44.70
2018-11-23T20:52:29.888Z,44.70
2018-11-23T20:54:55.912Z,44.60
2018-11-23T20:57:21.949Z,44.60
2018-11-23T21:02:20.689Z,44.70
2018-11-23T21:04:47.787Z,44.60
2018-11-23T21:07:13.817Z,44.60
2018-11-23T21:09:39.834Z,44.60
2018-11-23T21:12:05.859Z,44.60
2018-11-23T21:14:31.876Z,44.60
2018-11-23T21:16:57.896Z,44.60
2018-11-23T21:21:55.288Z,44.60
2018-11-23T21:24:21.295Z,44.60
2018-11-23T21:26:47.315Z,44.60
2018-11-23T21:29:13.344Z,44.60
2018-11-23T21:31:41.619Z,44.60
2018-11-23T21:34:07.638Z,44.60
2018-11-23T21:39:05.494Z,44.60
2018-11-23T21:41:31.439Z,44.60
2018-11-23T21:43:57.463Z,44.50
2018-11-23T21:46:23.699Z,44.50
2018-11-23T21:48:49.519Z,44.50
2018-11-23T21:51:15.545Z,44.50
2018-11-23T21:53:41.568Z,44.20
2018-11-23T21:56:09.404Z,44.70
2018-11-23T21:58:33.603Z,44.50
2018-11-23T22:00:59.703Z,44.60
2018-11-23T22:03:25.664Z,44.60
2018-11-23T22:05:51.675Z,44.50
2018-11-23T22:08:17.703Z,44.50
2018-11-23T22:10:43.728Z,44.50
2018-11-23T22:13:09.741Z,44.50
2018-11-23T22:15:35.767Z,44.50
2018-11-23T22:18:01.796Z,44.50
2018-11-23T22:20:27.825Z,44.50
2018-11-23T22:22:53.850Z,44.50
2018-11-23T22:25:19.667Z,44.50
2018-11-23T22:30:17.234Z,44.50
2018-11-23T22:35:17.691Z,44.50
2018-11-23T22:37:47.860Z,44.40
2018-11-23T22:40:13.820Z,44.40
2018-11-23T22:42:39.843Z,44.50
2018-11-23T22:45:05.671Z,44.50
2018-11-23T22:47:31.488Z,44.50
2018-11-23T22:49:57.519Z,44.40
2018-11-23T22:54:54.771Z,44.40
2018-11-23T22:57:20.806Z,44.50
2018-11-23T22:59:46.816Z,44.40
2018-11-23T23:02:12.844Z,44.40
2018-11-23T23:04:38.878Z,44.40
2018-11-23T23:07:04.886Z,44.50
2018-11-23T23:09:30.915Z,44.30
2018-11-23T23:11:56.949Z,44.30
2018-11-23T23:14:23.652Z,44.60
2018-11-23T23:16:53.694Z,44.30
2018-11-23T23:19:19.723Z,44.30
2018-11-23T23:21:45.753Z,44.30
2018-11-23T23:26:43.926Z,44.20
2018-11-23T23:29:09.960Z,44.20
2018-11-23T23:31:35.985Z,44.30
2018-11-23T23:34:02.007Z,44.30
2018-11-23T23:36:28.026Z,44.30
2018-11-23T23:38:54.066Z,44.40
2018-11-23T23:41:20.688Z,44.40
2018-11-23T23:43:46.710Z,44.30
2018-11-23T23:46:12.735Z,44.20
2018-11-23T23:48:38.768Z,44.20
2018-11-23T23:51:04.783Z,44.20
2018-11-23T23:53:30.802Z,44.20
2018-11-23T23:55:56.838Z,44.20
2018-11-23T23:58:22.852Z,44.70
